Time;durP1;ratioP1;P1;durP2;ratioP2;P2;SDS_P1;SDS_P2;PMS_P1;PMS_P2;Temp;Humidity;BMP_temperature;BMP_pressure;BME280_temperature;BME280_humidity;BME280_pressure;Samples;Min_cycle;Max_cycle;Signal;HPM_P1;HPM_P2
2022/05/23 00:02:46;;;;;;;;;12.50;9.00;;;;;20.52;59.97;100408.91;146606;564;46016;-71
2022/05/23 00:05:38;;;;;;;;;11.00;8.50;;;;;20.56;59.23;100420.34;146608;620;46010;-73
2022/05/23 00:08:32;;;;;;;;;10.00;8.25;;;;;20.58;59.77;100418.59;146604;568;46016;-71
2022/05/23 00:11:25;;;;;;;;;11.00;9.00;;;;;20.60;59.32;100417.75;146607;587;46021;-72
2022/05/23 00:14:17;;;;;;;;;11.50;9.50;;;;;20.63;59.32;100424.78;146604;684;46016;-71
2022/05/23 00:17:10;;;;;;;;;11.25;9.00;;;;;20.64;58.91;100422.16;146608;607;47010;-71
2022/05/23 00:20:02;;;;;;;;;8.75;8.25;;;;;20.63;59.37;100430.94;146606;584;46016;-71
2022/05/23 00:22:55;;;;;;;;;9.25;9.00;;;;;20.57;59.35;100420.37;146607;706;47010;-71
2022/05/23 00:25:47;;;;;;;;;9.25;9.25;;;;;20.53;59.80;100426.50;146605;591;46012;-71
2022/05/23 00:28:39;;;;;;;;;9.50;9.00;;;;;20.53;59.52;100439.66;146606;628;46020;-71
2022/05/23 00:31:32;;;;;;;;;9.50;8.00;;;;;20.52;59.74;100429.97;146603;570;46017;-71
2022/05/23 00:37:34;;;;;;;;;11.25;8.50;;;;;20.30;61.63;100432.44;146605;658;46016;-71
2022/05/23 00:40:44;;;;;;;;;9.50;8.50;;;;;20.20;59.65;100430.63;146606;635;46029;-71
2022/05/23 00:43:36;;;;;;;;;9.25;9.25;;;;;20.13;60.40;100425.31;146608;583;46012;-71
2022/05/23 00:46:28;;;;;;;;;9.75;7.75;;;;;20.09;60.50;100429.66;146610;671;46010;-71
2022/05/23 00:49:24;;;;;;;;;9.25;8.25;;;;;20.07;59.42;100427.03;146607;576;46017;-71
2022/05/23 00:52:25;;;;;;;;;9.00;9.00;;;;;20.07;60.35;100437.56;146607;656;47010;-71
2022/05/23 00:55:23;;;;;;;;;11.00;10.25;;;;;20.01;60.37;100426.97;146606;680;46016;-72
2022/05/23 00:58:23;;;;;;;;;9.00;8.50;;;;;19.95;60.02;100428.69;146606;624;46010;-72
2022/05/23 01:01:19;;;;;;;;;10.75;8.75;;;;;19.90;60.76;100422.47;146606;651;46012;-71
2022/05/23 01:04:11;;;;;;;;;9.75;8.00;;;;;19.88;61.09;100427.75;146609;706;46020;-71
2022/05/23 01:07:03;;;;;;;;;10.00;9.00;;;;;19.79;60.58;100419.78;146600;597;48917;-72
2022/05/23 01:09:56;;;;;;;;;10.75;8.75;;;;;19.78;61.61;100421.53;146609;627;46010;-71
2022/05/23 01:12:48;;;;;;;;;9.00;7.50;;;;;19.74;60.59;100416.22;146604;685;46016;-72
2022/05/23 01:15:40;;;;;;;;;10.75;8.50;;;;;19.69;61.12;100418.81;146607;587;46010;-72
2022/05/23 01:18:33;;;;;;;;;11.75;11.00;;;;;19.65;61.55;100413.50;146607;569;46014;-72
2022/05/23 01:22:01;;;;;;;;;8.75;8.75;;;;;19.62;59.96;100404.69;146609;639;45050;-72
2022/05/23 01:25:42;;;;;;;;;13.00;10.75;;;;;19.61;60.45;100410.78;146605;625;46017;-72
2022/05/23 01:28:43;;;;;;;;;9.00;9.00;;;;;19.59;60.61;100406.37;146606;589;46010;-72
2022/05/23 01:31:34;;;;;;;;;10.00;10.00;;;;;19.61;61.16;100405.53;146606;573;46034;-73
2022/05/23 01:34:27;;;;;;;;;8.75;8.00;;;;;19.62;61.77;100409.03;146606;566;46020;-71
2022/05/23 01:37:20;;;;;;;;;9.50;9.00;;;;;19.54;62.99;100423.87;146607;579;46016;-72
2022/05/23 01:40:15;;;;;;;;;9.75;9.00;;;;;19.44;62.84;100422.91;146607;581;46011;-72
2022/05/23 01:43:07;;;;;;;;;10.25;10.25;;;;;19.38;61.66;100423.72;146606;589;46016;-72
2022/05/23 01:46:00;;;;;;;;;10.00;9.00;;;;;19.39;62.88;100429.87;146608;703;46010;-72
2022/05/23 01:48:52;;;;;;;;;12.25;10.25;;;;;19.34;63.03;100426.28;146605;599;46012;-72
2022/05/23 01:51:44;;;;;;;;;12.00;11.50;;;;;19.28;62.47;100431.47;146608;627;46010;-72
2022/05/23 01:54:35;;;;;;;;;10.00;10.00;;;;;19.26;63.12;100427.97;146605;576;46016;-72
2022/05/23 01:57:28;;;;;;;;;12.75;11.50;;;;;19.24;63.96;100433.19;146605;613;45031;-72
2022/05/23 02:03:31;;;;;;;;;12.25;11.00;;;;;19.14;62.08;100428.72;146608;614;46020;-72
2022/05/23 02:06:24;;;;;;;;;11.75;10.50;;;;;19.16;65.38;100424.38;146605;571;46016;-71
2022/05/23 02:09:26;;;;;;;;;11.25;10.75;;;;;19.15;63.02;100430.47;146608;676;46011;-72
2022/05/23 02:12:19;;;;;;;;;9.75;9.75;;;;;19.13;63.77;100430.47;146602;575;46016;-72
2022/05/23 02:15:12;;;;;;;;;13.00;10.75;;;;;19.12;63.76;100430.44;146607;564;46020;-72
2022/05/23 02:18:06;;;;;;;;;9.00;9.00;;;;;19.07;63.55;100432.12;146603;580;46016;-72
2022/05/23 02:20:59;;;;;;;;;10.00;10.00;;;;;19.03;63.15;100432.94;146609;606;46010;-72
2022/05/23 02:23:51;;;;;;;;;10.50;9.75;;;;;19.01;63.96;100429.44;146605;586;46017;-72
2022/05/23 02:26:43;;;;;;;;;11.25;11.25;;;;;17.97;63.62;100251.31;146605;569;47010;-72
2022/05/23 02:29:36;;;;;;;;;10.75;9.00;;;;;18.96;63.93;100423.22;146603;636;46016;-72
2022/05/23 02:32:28;;;;;;;;;11.00;9.00;;;;;18.95;63.96;100424.97;146609;622;46010;-71
2022/05/23 02:35:21;;;;;;;;;9.25;9.25;;;;;18.91;63.24;100424.06;146608;633;46012;-72
2022/05/23 02:38:14;;;;;;;;;10.25;9.50;;;;;18.90;64.07;100424.91;146608;616;46010;-72
2022/05/23 02:41:06;;;;;;;;;11.25;11.00;;;;;18.86;64.64;100428.38;146606;569;46016;-72
2022/05/23 02:43:58;;;;;;;;;11.25;10.25;;;;;18.81;65.48;100423.91;146607;588;46020;-71
2022/05/23 02:46:51;;;;;;;;;10.50;9.50;;;;;18.79;63.35;100426.53;146602;624;46017;-72
2022/05/23 02:49:43;;;;;;;;;9.00;9.00;;;;;18.77;65.44;100416.87;146606;569;46010;-72
2022/05/23 02:52:35;;;;;;;;;12.25;11.75;;;;;18.71;67.52;100422.88;146605;583;46031;-71
2022/05/23 02:55:27;;;;;;;;;11.75;10.75;;;;;18.69;64.72;100422.88;146607;666;46010;-72
2022/05/23 02:58:19;;;;;;;;;15.75;15.75;;;;;18.66;65.97;100425.47;146604;563;46016;-72
2022/05/23 03:01:11;;;;;;;;;15.50;15.00;;;;;18.73;65.08;100430.84;146610;564;45021;-72
2022/05/23 03:04:03;;;;;;;;;15.00;11.75;;;;;18.73;65.94;100430.84;146606;722;46014;-71
2022/05/23 03:06:57;;;;;;;;;11.50;11.00;;;;;18.71;65.97;100425.50;146607;574;46020;-72
2022/05/23 03:09:49;;;;;;;;;14.25;12.00;;;;;18.71;66.70;100436.00;146605;606;46016;-72
2022/05/23 03:12:41;;;;;;;;;11.50;10.75;;;;;18.70;65.15;100439.50;146610;577;46010;-72
2022/05/23 03:15:33;;;;;;;;;13.75;11.50;;;;;18.69;66.26;100440.34;146604;564;46918;-71
2022/05/23 03:18:26;;;;;;;;;14.00;12.00;;;;;18.68;65.37;100434.22;146607;659;46020;-72
2022/05/23 03:27:37;;;;;;;;;17.50;16.50;;;;;18.86;64.90;100445.88;146605;585;46016;-73
2022/05/23 03:30:31;;;;;;;;;13.00;13.00;;;;;18.92;65.39;100452.09;146607;582;46021;-72
2022/05/23 03:33:23;;;;;;;;;14.00;12.25;;;;;18.96;65.67;100452.12;146608;628;46012;-72
2022/05/23 03:36:15;;;;;;;;;14.75;14.75;;;;;17.97;65.10;100274.91;146604;571;47010;-71
2022/05/23 03:39:07;;;;;;;;;16.00;13.75;;;;;19.03;65.69;100456.59;146607;592;46014;-71
2022/05/23 03:42:00;;;;;;;;;14.75;14.75;;;;;19.07;66.81;100461.03;146608;705;46020;-71
2022/05/23 03:44:52;;;;;;;;;15.75;14.50;;;;;19.09;66.24;100469.81;146605;581;46014;-71
2022/05/23 03:47:44;;;;;;;;;15.75;14.25;;;;;19.10;65.90;100475.09;146610;572;45020;-71
2022/05/23 03:50:36;;;;;;;;;17.25;15.00;;;;;19.11;68.73;100473.34;146604;574;47015;-71
2022/05/23 03:53:29;;;;;;;;;14.50;13.75;;;;;19.14;67.23;100470.75;146608;625;45021;-71
2022/05/23 03:56:21;;;;;;;;;12.00;12.00;;;;;19.17;65.94;100465.53;146604;601;46012;-71
2022/05/23 03:59:13;;;;;;;;;16.75;14.50;;;;;19.24;67.16;100459.50;146610;638;46010;-71
2022/05/23 04:02:06;;;;;;;;;13.75;13.00;;;;;19.25;68.77;100460.37;146606;579;46014;-71
2022/05/23 04:04:58;;;;;;;;;15.50;15.25;;;;;19.26;69.75;100465.66;146608;594;46010;-71
2022/05/23 04:07:50;;;;;;;;;18.00;18.00;;;;;19.28;70.81;100476.16;146605;596;46017;-71
2022/05/23 04:10:45;;;;;;;;;17.00;16.75;;;;;19.41;67.57;100480.72;146609;588;46020;-72
2022/05/23 04:13:38;;;;;;;;;21.00;20.25;;;;;19.61;67.40;100468.66;146605;599;46017;-71
2022/05/23 04:16:30;;;;;;;;;19.25;19.25;;;;;19.84;67.46;100476.84;146607;758;46020;-72
2022/05/23 04:19:22;;;;;;;;;15.75;15.50;;;;;20.06;66.26;100477.91;146606;572;46016;-72
2022/05/23 04:22:14;;;;;;;;;20.00;18.00;;;;;20.29;65.22;100479.84;146607;609;46011;-72
2022/05/23 04:25:08;;;;;;;;;30.75;27.25;;;;;20.53;65.13;100479.19;146607;605;46016;-72
2022/05/23 04:28:00;;;;;;;;;19.00;18.00;;;;;20.72;64.16;100481.06;146608;766;46021;-72
2022/05/23 04:30:52;;;;;;;;;19.75;18.50;;;;;20.91;64.30;100489.06;146607;582;46012;-72
2022/05/23 04:36:54;;;;;;;;;22.25;19.25;;;;;21.27;64.44;100483.06;146600;586;46017;-72
2022/05/23 04:39:46;;;;;;;;;19.50;18.25;;;;;21.41;62.69;100484.03;146608;566;46020;-72
2022/05/23 04:42:39;;;;;;;;;20.25;17.50;;;;;21.58;63.07;100489.34;146604;564;46016;-72
2022/05/23 04:45:31;;;;;;;;;21.75;21.75;;;;;21.74;62.21;100499.94;146608;583;46020;-72
2022/05/23 04:51:33;;;;;;;;;18.75;16.25;;;;;22.10;61.13;100494.69;146606;757;46023;-72
2022/05/23 04:54:25;;;;;;;;;23.75;22.00;;;;;22.31;60.45;100493.00;146607;642;46016;-72
2022/05/23 04:57:17;;;;;;;;;18.25;16.75;;;;;22.53;60.24;100492.09;146610;574;46010;-71
2022/05/23 05:00:14;;;;;;;;;21.75;19.00;;;;;22.77;60.01;100483.22;146604;564;46016;-72
2022/05/23 05:03:06;;;;;;;;;21.00;20.00;;;;;23.01;59.29;100494.63;146607;603;46020;-72
2022/05/23 05:05:58;;;;;;;;;23.00;20.25;;;;;23.24;58.85;100494.53;146603;600;46017;-72
2022/05/23 05:08:51;;;;;;;;;22.00;18.50;;;;;23.44;58.13;100491.81;146608;578;46020;-72
2022/05/23 05:11:43;;;;;;;;;24.25;21.25;;;;;23.62;57.32;100488.19;146605;598;47012;-72
2022/05/23 05:14:35;;;;;;;;;22.50;20.75;;;;;23.72;57.24;100479.34;146609;643;45047;-72
2022/05/23 05:17:27;;;;;;;;;22.75;20.75;;;;;23.84;56.98;100479.25;146606;713;46012;-72
2022/05/23 05:20:21;;;;;;;;;19.50;18.25;;;;;23.90;56.83;100473.03;146606;641;46010;-71
2022/05/23 05:23:13;;;;;;;;;20.75;18.00;;;;;24.02;56.73;100480.00;146604;689;46917;-71
2022/05/23 05:26:06;;;;;;;;;21.00;19.25;;;;;24.13;56.40;100480.78;146605;565;46010;-72
2022/05/23 05:28:57;;;;;;;;;22.00;20.50;;;;;24.26;56.30;100484.22;146604;602;46016;-71
2022/05/23 05:32:02;;;;;;;;;25.00;23.00;;;;;24.36;55.34;100486.78;146607;614;47010;-71
2022/05/23 05:35:03;;;;;;;;;30.25;24.75;;;;;24.49;55.49;100492.00;146604;592;46918;-71
2022/05/23 05:38:02;;;;;;;;;21.50;20.50;;;;;24.59;55.08;100498.97;146607;604;47010;-72
2022/05/23 05:41:01;;;;;;;;;23.00;20.00;;;;;24.72;55.44;100495.28;146604;564;46016;-71
2022/05/23 05:44:01;;;;;;;;;20.75;20.00;;;;;24.85;54.68;100491.59;146608;583;46010;-72
2022/05/23 05:46:59;;;;;;;;;22.00;20.00;;;;;24.96;55.28;100480.87;146608;619;46012;-72
2022/05/23 05:49:56;;;;;;;;;20.75;19.50;;;;;25.17;54.75;100482.44;146602;564;47010;-72
2022/05/23 05:52:49;;;;;;;;;20.00;18.75;;;;;25.33;54.62;100480.47;146604;579;46016;-71
2022/05/23 05:55:43;;;;;;;;;23.75;21.50;;;;;25.50;54.73;100483.75;146607;665;46020;-71
2022/05/23 05:58:37;;;;;;;;;22.50;21.50;;;;;25.67;53.64;100486.19;146606;581;46013;-71
2022/05/23 06:01:29;;;;;;;;;26.00;23.75;;;;;25.78;52.79;100484.22;146609;587;46020;-71
2022/05/23 06:04:21;;;;;;;;;24.75;20.50;;;;;25.79;52.54;100485.09;146605;571;46017;-71
2022/05/23 06:13:42;;;;;;;;;23.00;20.00;;;;;25.17;52.64;100332.97;146605;572;46021;-71
2022/05/23 06:16:40;;;;;;;;;22.00;19.00;;;;;26.16;52.74;100496.06;146604;584;46016;-73
2022/05/23 06:19:32;;;;;;;;;16.25;14.25;;;;;26.24;52.17;100490.63;146606;588;46020;-72
2022/05/23 06:22:24;;;;;;;;;18.00;17.25;;;;;26.29;52.70;100482.56;146603;599;46016;-72
2022/05/23 06:25:17;;;;;;;;;16.50;15.25;;;;;26.40;51.71;100476.16;146609;642;47010;-72
2022/05/23 06:28:10;;;;;;;;;19.25;19.00;;;;;26.54;52.21;100483.03;146605;646;46017;-71
2022/05/23 06:31:02;;;;;;;;;18.25;17.25;;;;;26.65;51.35;100479.28;146607;563;46010;-71
2022/05/23 06:33:55;;;;;;;;;19.00;18.50;;;;;26.69;50.15;100478.31;146606;636;46017;-71
2022/05/23 06:36:47;;;;;;;;;16.25;14.25;;;;;26.68;50.09;100467.72;146606;576;47010;-71
2022/05/23 06:39:39;;;;;;;;;16.00;15.00;;;;;26.69;50.37;100466.81;146604;597;46016;-71
2022/05/23 06:42:32;;;;;;;;;15.50;15.50;;;;;26.69;51.96;100457.03;146608;606;47010;-71
2022/05/23 06:45:24;;;;;;;;;19.50;19.00;;;;;26.75;51.24;100458.69;146607;569;45016;-71
2022/05/23 06:48:17;;;;;;;;;18.75;17.50;;;;;26.84;51.18;100452.34;146606;619;46010;-71
2022/05/23 06:51:10;;;;;;;;;14.25;14.25;;;;;26.92;51.28;100453.06;146607;601;46034;-71
2022/05/23 06:54:03;;;;;;;;;18.00;16.00;;;;;26.99;51.25;100456.47;146607;615;46010;-72
2022/05/23 06:56:55;;;;;;;;;15.00;14.50;;;;;27.07;50.91;100463.41;146605;592;46017;-72
2022/05/23 06:59:48;;;;;;;;;18.50;16.00;;;;;27.14;51.14;100457.06;146607;585;46020;-72
2022/05/23 07:02:43;;;;;;;;;16.75;15.50;;;;;27.18;51.70;100460.53;146606;583;46917;-71
2022/05/23 07:15:09;;;;;;;;;13.75;12.75;;;;;27.33;51.86;100457.53;146604;675;46016;-71
2022/05/23 07:18:03;;;;;;;;;13.75;13.75;;;;;27.24;51.08;100462.19;146607;580;47010;-71
2022/05/23 07:20:54;;;;;;;;;21.00;18.75;;;;;27.24;51.58;100462.19;146607;578;47014;-71
2022/05/23 07:23:47;;;;;;;;;14.75;13.25;;;;;27.36;50.47;100449.47;146610;573;46020;-71
2022/05/23 07:26:39;;;;;;;;;14.25;13.50;;;;;27.51;50.34;100440.28;146603;640;46918;-71
2022/05/23 07:29:32;;;;;;;;;14.25;13.00;;;;;27.75;49.69;100443.25;146609;669;46031;-71
2022/05/23 07:32:23;;;;;;;;;14.50;12.75;;;;;27.98;50.94;100445.41;146607;689;47012;-71
2022/05/23 07:35:16;;;;;;;;;13.50;10.50;;;;;28.13;50.60;100444.13;146606;578;46010;-72
2022/05/23 07:38:09;;;;;;;;;16.25;15.50;;;;;28.27;50.14;100445.53;146605;570;46016;-71
2022/05/23 07:41:01;;;;;;;;;15.00;13.50;;;;;28.47;50.04;100446.81;146602;653;47012;-71
2022/05/23 07:43:53;;;;;;;;;14.50;12.50;;;;;28.63;48.75;100450.84;146604;637;46016;-71
2022/05/23 07:46:47;;;;;;;;;14.00;14.00;;;;;28.72;48.93;100460.34;146606;623;47010;-71
2022/05/23 07:49:39;;;;;;;;;16.25;15.00;;;;;28.77;49.74;100462.00;146606;643;46017;-71
2022/05/23 07:52:31;;;;;;;;;16.00;14.25;;;;;28.53;49.70;100390.63;146608;588;47010;-72
2022/05/23 08:01:43;;;;;;;;;16.00;15.50;;;;;29.44;48.71;100440.47;146606;599;45033;-71
2022/05/23 08:04:38;;;;;;;;;16.00;16.00;;;;;29.59;47.96;100438.22;146609;592;46011;-73
2022/05/23 08:07:30;;;;;;;;;17.50;16.00;;;;;29.58;47.79;100433.81;146606;580;46014;-72
2022/05/23 08:10:23;;;;;;;;;14.75;13.00;;;;;29.56;48.62;100439.19;146609;613;46021;-72
2022/05/23 08:13:15;;;;;;;;;16.75;16.75;;;;;29.64;48.86;100437.19;146607;637;45032;-71
2022/05/23 08:16:08;;;;;;;;;16.00;15.00;;;;;29.62;47.41;100440.84;146603;743;46028;-72
2022/05/23 08:19:02;;;;;;;;;17.75;15.75;;;;;29.51;47.48;100442.94;146603;578;46014;-72
2022/05/23 08:21:59;;;;;;;;;19.50;16.75;;;;;29.42;47.92;100442.31;146608;659;46010;-71
2022/05/23 08:24:51;;;;;;;;;18.75;17.75;;;;;29.36;47.22;100433.63;146603;603;46016;-71
2022/05/23 08:27:43;;;;;;;;;20.50;19.00;;;;;29.37;47.58;100422.88;146606;633;46020;-72
2022/05/23 08:30:36;;;;;;;;;19.75;18.00;;;;;29.41;46.57;100423.69;146604;578;46016;-71
2022/05/23 08:33:28;;;;;;;;;22.25;20.25;;;;;29.51;47.45;100435.81;146606;758;46021;-72
2022/05/23 08:36:20;;;;;;;;;16.25;15.50;;;;;29.58;47.29;100439.16;146605;574;46014;-71
2022/05/23 08:39:13;;;;;;;;;17.50;16.75;;;;;28.79;46.97;100301.87;146607;569;47010;-71
2022/05/23 08:42:15;;;;;;;;;24.25;22.00;;;;;29.49;45.71;100439.44;146602;565;46017;-71
2022/05/23 08:45:44;;;;;;;;;22.50;20.00;;;;;29.27;47.79;100420.53;146605;583;46010;-72
2022/05/23 08:49:20;;;;;;;;;18.25;17.50;;;;;29.34;46.15;100430.97;146604;624;46018;-72
2022/05/23 08:52:49;;;;;;;;;18.25;16.00;;;;;29.28;46.08;100430.28;146606;614;46020;-72
2022/05/23 08:55:59;;;;;;;;;16.50;16.00;;;;;29.12;47.68;100421.88;146606;597;46016;-71
2022/05/23 08:58:57;;;;;;;;;17.75;16.75;;;;;28.91;46.28;100428.69;146606;604;46020;-71
2022/05/23 09:02:23;;;;;;;;;19.50;19.50;;;;;27.23;48.64;100152.56;146604;569;46034;-71
2022/05/23 09:05:22;;;;;;;;;21.00;19.50;;;;;28.83;46.47;100436.94;146609;575;46010;-71
2022/05/23 09:08:22;;;;;;;;;18.75;18.75;;;;;28.77;47.08;100445.09;146606;584;46016;-71
2022/05/23 09:11:44;;;;;;;;;19.75;19.75;;;;;28.71;46.92;100447.94;146611;570;46010;-71
2022/05/23 09:14:36;;;;;;;;;16.50;15.75;;;;;28.74;46.06;100445.19;146606;648;46012;-71
2022/05/23 09:17:37;;;;;;;;;13.00;11.25;;;;;28.92;45.51;100438.47;146607;604;46010;-71
2022/05/23 09:20:58;;;;;;;;;12.25;12.25;;;;;27.82;46.39;100205.09;146607;599;46012;-72
2022/05/23 09:23:54;;;;;;;;;11.75;10.75;;;;;29.55;43.90;100448.13;146607;570;46020;-72
2022/05/23 09:26:48;;;;;;;;;9.00;8.25;;;;;29.84;41.76;100444.56;146609;589;45030;-71
2022/05/23 09:29:40;;;;;;;;;13.50;13.25;;;;;30.10;43.11;100434.81;146608;563;46020;-72
2022/05/23 09:33:09;;;;;;;;;12.00;10.00;;;;;30.38;43.40;100426.72;146604;564;46017;-72
2022/05/23 09:36:40;;;;;;;;;11.00;11.00;;;;;29.76;35.05;100282.72;146604;577;46020;-71
2022/05/23 09:39:34;;;;;;;;;9.25;9.25;;;;;30.61;37.96;100416.06;146604;570;46018;-71
2022/05/23 09:49:13;;;;;;;;;8.25;7.50;;;;;30.09;39.65;100259.25;146605;575;46023;-71
2022/05/23 09:52:27;;;;;;;;;5.00;5.00;;;;;30.93;35.38;100402.44;146606;668;46016;-71
2022/05/23 09:55:31;;;;;;;;;6.00;6.00;;;;;30.92;38.40;100400.69;146609;595;46012;-72
2022/05/23 09:58:38;;;;;;;;;5.75;5.75;;;;;30.86;32.27;100399.13;146605;741;46016;-72
2022/05/23 10:01:33;;;;;;;;;7.00;5.67;;;;;30.80;34.07;100394.88;146608;603;46020;-71
2022/05/23 10:04:34;;;;;;;;;5.67;5.33;;;;;30.81;37.03;100382.34;146607;650;46024;-72
2022/05/23 10:07:39;;;;;;;;;5.67;5.67;;;;;30.86;35.64;100384.88;146609;603;46010;-71
2022/05/23 10:10:34;;;;;;;;;6.33;5.33;;;;;30.86;35.12;100395.59;146605;588;46017;-72
2022/05/23 10:13:32;;;;;;;;;5.33;4.33;;;;;30.88;35.26;100388.38;146609;597;46010;-72
2022/05/23 10:16:33;;;;;;;;;5.33;5.33;;;;;30.92;34.72;100384.62;146607;571;46013;-72
2022/05/23 10:19:43;;;;;;;;;6.33;6.33;;;;;31.00;38.68;100385.22;146605;584;46030;-72
2022/05/23 10:22:35;;;;;;;;;6.00;5.00;;;;;31.10;31.33;100381.25;146605;570;46016;-72
2022/05/23 10:25:31;;;;;;;;;6.00;6.00;;;;;31.21;35.40;100381.69;146607;605;46012;-72
2022/05/23 10:28:39;;;;;;;;;5.33;5.33;;;;;31.33;34.41;100376.78;146607;627;46014;-72
2022/05/23 10:31:39;;;;;;;;;5.00;5.00;;;;;31.38;35.40;100364.97;146607;651;46020;-72
2022/05/23 10:34:48;;;;;;;;;7.00;6.00;;;;;31.41;37.06;100364.00;146608;640;45579;-72
2022/05/23 10:37:41;;;;;;;;;5.67;4.67;;;;;31.42;31.06;100365.72;146609;558;46020;-72
2022/05/23 10:44:31;;;;;;;;;4.00;4.00;;;;;31.32;34.48;100356.28;146611;637;46010;-72
2022/05/23 10:47:51;;;;;;;;;4.00;3.33;;;;;31.39;33.33;100356.00;146607;564;46016;-72
2022/05/23 10:51:25;;;;;;;;;6.00;4.67;;;;;31.43;34.43;100351.38;146605;626;46022;-72
2022/05/23 10:54:47;;;;;;;;;4.00;3.00;;;;;30.80;28.13;100255.69;146606;565;46017;-72
2022/05/23 10:58:31;;;;;;;;;5.33;4.00;;;;;31.31;34.25;100344.72;146610;663;46010;-72
2022/05/23 11:02:07;;;;;;;;;3.67;3.00;;;;;31.33;34.29;100344.63;146605;566;46017;-72
2022/05/23 11:05:41;;;;;;;;;4.00;4.00;;;;;31.46;30.81;100345.91;146608;607;46020;-72
2022/05/23 11:09:12;;;;;;;;;4.00;4.00;;;;;31.58;32.39;100344.53;146607;597;46916;-72
2022/05/23 11:12:41;;;;;;;;;3.33;3.33;;;;;31.58;30.46;100337.34;146607;566;47010;-72
2022/05/23 11:16:22;;;;;;;;;4.00;4.00;;;;;30.71;33.64;100186.44;146605;683;46016;-75
2022/05/23 11:19:44;;;;;;;;;4.25;4.25;;;;;31.59;35.96;100330.19;146610;564;47010;-73
2022/05/23 11:22:53;;;;;;;;;4.00;4.00;;;;;31.45;29.18;100323.59;146608;588;46016;-72
2022/05/23 11:26:00;;;;;;;;;5.00;5.00;;;;;31.28;33.96;100328.75;146605;589;46038;-72
2022/05/23 11:35:50;;;;;;;;;4.25;4.25;;;;;31.11;29.88;100313.34;146605;565;46016;-73
2022/05/23 11:38:50;;;;;;;;;4.00;4.00;;;;;31.04;28.59;100306.50;146610;636;46012;-73
2022/05/23 11:41:45;;;;;;;;;4.67;4.00;;;;;31.00;30.83;100311.13;146607;570;46016;-72
2022/05/23 11:49:00;;;;;;;;;4.00;3.67;;;;;31.14;34.60;100307.87;146606;596;46915;-73
2022/05/23 11:52:02;;;;;;;;;4.33;4.33;;;;;31.11;32.20;100299.97;146606;600;47010;-72
2022/05/23 11:54:55;;;;;;;;;5.67;5.33;;;;;31.16;32.24;100299.81;146605;585;46017;-72
2022/05/23 11:57:47;;;;;;;;;7.25;6.25;;;;;31.20;31.77;100293.38;146606;563;46020;-72
2022/05/23 12:00:41;;;;;;;;;6.75;5.75;;;;;31.10;31.64;100286.66;146603;657;47015;-74
2022/05/23 12:04:15;;;;;;;;;4.75;4.75;;;;;31.03;34.37;100280.69;146606;631;46012;-72
2022/05/23 12:07:07;;;;;;;;;6.25;3.75;;;;;31.14;30.33;100285.59;146605;682;47015;-71
2022/05/23 12:10:00;;;;;;;;;4.50;4.00;;;;;31.19;32.04;100278.25;146609;697;46021;-72
2022/05/23 12:13:03;;;;;;;;;4.67;4.67;;;;;31.25;28.68;100275.31;146606;612;46016;-72
2022/05/23 12:15:58;;;;;;;;;3.75;3.75;;;;;29.98;32.03;100045.81;146606;565;47010;-71
2022/05/23 12:18:52;;;;;;;;;5.00;5.00;;;;;31.42;29.19;100269.28;146606;646;46016;-72
2022/05/23 12:21:49;;;;;;;;;5.75;5.00;;;;;31.49;31.21;100274.28;146606;712;46021;-71
2022/05/23 12:25:25;;;;;;;;;6.25;5.00;;;;;31.58;33.45;100272.16;146605;566;46014;-73
2022/05/23 12:28:22;;;;;;;;;4.25;4.00;;;;;31.66;31.89;100270.03;146606;604;46020;-72
2022/05/23 12:31:25;;;;;;;;;3.00;3.00;;;;;31.65;33.26;100263.81;146607;648;46016;-73
2022/05/23 12:34:17;;;;;;;;;6.50;6.25;;;;;31.63;31.91;100264.81;146609;702;46020;-72
2022/05/23 12:37:10;;;;;;;;;7.50;7.00;;;;;31.68;32.52;100263.69;146607;645;46012;-72
2022/05/23 12:40:43;;;;;;;;;5.00;5.00;;;;;31.79;33.36;100259.66;146610;565;46020;-71
2022/05/23 12:44:22;;;;;;;;;6.00;4.00;;;;;31.54;28.94;100216.97;146607;605;46016;-72
2022/05/23 12:47:46;;;;;;;;;6.67;6.67;;;;;31.24;27.94;100196.75;146606;590;46021;-73
2022/05/23 12:55:05;;;;;;;;;4.50;4.50;;;;;31.46;34.27;100238.72;146606;623;46021;-72
2022/05/23 12:58:43;;;;;;;;;6.50;6.50;;;;;31.52;32.72;100238.47;146606;722;47012;-71
2022/05/23 13:01:39;;;;;;;;;6.00;6.00;;;;;31.57;30.97;100224.88;146607;636;46021;-70
2022/05/23 13:04:51;;;;;;;;;6.67;6.67;;;;;31.64;32.58;100229.88;146609;563;46012;-69
2022/05/23 13:08:11;;;;;;;;;5.00;5.00;;;;;30.92;32.56;100103.53;146609;669;46021;-69
2022/05/23 13:11:15;;;;;;;;;6.50;5.75;;;;;31.60;32.48;100216.72;146607;587;46016;-74
2022/05/23 13:14:08;;;;;;;;;5.75;5.75;;;;;31.44;31.56;100225.41;146607;628;46010;-73
2022/05/23 13:17:02;;;;;;;;;6.00;6.00;;;;;31.29;31.16;100218.84;146605;573;46016;-75
2022/05/23 13:23:04;;;;;;;;;6.00;6.00;;;;;30.98;31.55;100208.56;146604;581;47012;-76
2022/05/23 13:25:56;;;;;;;;;6.67;6.33;;;;;30.93;33.58;100207.88;146608;652;46020;-76
2022/05/23 13:28:54;;;;;;;;;6.00;6.00;;;;;30.94;33.60;100203.41;146609;597;46012;-74
2022/05/23 13:31:47;;;;;;;;;6.00;6.00;;;;;30.93;33.01;100217.72;146605;574;46028;-73
2022/05/23 13:34:42;;;;;;;;;6.00;6.00;;;;;30.84;33.69;100202.87;146605;569;46917;-77
2022/05/23 13:37:40;;;;;;;;;5.25;4.50;;;;;30.89;33.82;100210.75;146609;636;46010;-77
2022/05/23 13:40:34;;;;;;;;;7.00;6.00;;;;;30.92;33.86;100206.13;146607;654;46012;-73
2022/05/23 13:43:35;;;;;;;;;6.25;6.25;;;;;30.90;34.83;100197.28;146610;566;46010;-72
2022/05/23 13:46:40;;;;;;;;;7.00;6.00;;;;;30.84;33.19;100200.22;146605;649;47012;-71
2022/05/23 13:49:53;;;;;;;;;7.75;6.75;;;;;30.78;32.64;100201.38;146609;688;47010;-71
2022/05/23 13:53:17;;;;;;;;;5.50;5.50;;;;;30.77;34.15;100191.56;146604;577;46017;-71
2022/05/23 13:56:10;;;;;;;;;7.00;6.75;;;;;30.75;32.83;100193.44;146605;628;46020;-70
2022/05/23 13:59:08;;;;;;;;;5.00;5.00;;;;;30.61;33.09;100201.12;146604;571;46014;-70
2022/05/23 14:02:06;;;;;;;;;5.00;5.00;;;;;30.47;33.39;100203.47;146604;620;46020;-72
2022/05/23 14:04:59;;;;;;;;;4.75;4.75;;;;;30.33;32.71;100204.88;146607;669;46012;-72
2022/05/23 14:07:52;;;;;;;;;8.25;6.75;;;;;30.25;33.70;100190.94;146605;571;46010;-70
2022/05/23 14:10:48;;;;;;;;;5.25;5.25;;;;;30.28;34.08;100180.13;146604;590;46016;-70
2022/05/23 14:13:40;;;;;;;;;5.25;4.75;;;;;30.26;33.10;100183.78;146606;574;47013;-70
2022/05/23 14:16:32;;;;;;;;;8.00;6.00;;;;;30.28;34.42;100180.13;146605;582;46014;-70
2022/05/23 14:19:31;;;;;;;;;6.00;6.00;;;;;30.35;32.80;100175.41;146607;574;46020;-70
2022/05/23 14:22:32;;;;;;;;;4.50;4.50;;;;;30.40;32.09;100181.44;146607;565;46016;-70
2022/05/23 14:25:28;;;;;;;;;5.00;5.00;;;;;30.42;33.06;100176.03;146609;726;46010;-70
2022/05/23 14:28:33;;;;;;;;;6.00;6.00;;;;;30.42;33.59;100179.59;146605;565;46015;-70
2022/05/23 14:31:34;;;;;;;;;5.50;5.50;;;;;30.34;31.49;100174.53;146606;690;46010;-69
2022/05/23 14:34:31;;;;;;;;;4.67;4.00;;;;;30.19;30.82;100174.22;146607;606;46012;-70
2022/05/23 14:37:27;;;;;;;;;7.67;5.67;;;;;30.13;31.58;100172.66;146610;604;46010;-69
2022/05/23 14:40:35;;;;;;;;;5.00;5.00;;;;;30.17;32.06;100165.41;146606;563;46016;-70
2022/05/23 14:43:38;;;;;;;;;6.75;6.75;;;;;30.19;32.61;100169.75;146606;662;46021;-79
2022/05/23 14:47:22;;;;;;;;;5.25;5.00;;;;;29.86;30.62;100121.97;146604;575;46016;-77
2022/05/23 14:50:25;;;;;;;;;5.50;5.00;;;;;30.11;32.53;100172.72;146608;575;46010;-78
2022/05/23 14:57:04;;;;;;;;;4.75;4.75;;;;;30.00;29.83;100179.37;146608;564;46012;-73